sensor_id;sensor_type;location;lat;lon;timestamp;P1;durP1;ratioP1;P2;durP2;ratioP2
31652;SDS011;18261;53.648;9.910;2023-05-31T00:00:47;8.98;;;4.05;;
31652;SDS011;18261;53.648;9.910;2023-05-31T00:03:13;10.60;;;4.18;;
31652;SDS011;18261;53.648;9.910;2023-05-31T00:05:39;10.02;;;4.20;;
31652;SDS011;18261;53.648;9.910;2023-05-31T00:08:05;15.80;;;4.60;;
31652;SDS011;18261;53.648;9.910;2023-05-31T00:10:31;9.45;;;4.10;;
31652;SDS011;18261;53.648;9.910;2023-05-31T00:12:57;13.77;;;4.60;;
31652;SDS011;18261;53.648;9.910;2023-05-31T00:15:23;17.15;;;4.63;;
31652;SDS011;18261;53.648;9.910;2023-05-31T00:17:49;10.63;;;4.15;;
31652;SDS011;18261;53.648;9.910;2023-05-31T00:20:15;10.93;;;4.40;;
31652;SDS011;18261;53.648;9.910;2023-05-31T00:22:41;11.48;;;4.25;;
31652;SDS011;18261;53.648;9.910;2023-05-31T00:25:07;14.13;;;5.00;;
31652;SDS011;18261;53.648;9.910;2023-05-31T00:27:33;9.13;;;4.20;;
31652;SDS011;18261;53.648;9.910;2023-05-31T00:29:59;10.23;;;3.85;;
31652;SDS011;18261;53.648;9.910;2023-05-31T00:32:25;11.20;;;4.68;;
31652;SDS011;18261;53.648;9.910;2023-05-31T00:34:51;14.27;;;4.78;;
31652;SDS011;18261;53.648;9.910;2023-05-31T00:37:17;11.95;;;4.90;;
31652;SDS011;18261;53.648;9.910;2023-05-31T00:39:43;13.00;;;4.53;;
31652;SDS011;18261;53.648;9.910;2023-05-31T00:42:09;11.15;;;4.80;;
31652;SDS011;18261;53.648;9.910;2023-05-31T00:44:35;11.40;;;4.93;;
31652;SDS011;18261;53.648;9.910;2023-05-31T00:47:01;15.00;;;4.50;;
31652;SDS011;18261;53.648;9.910;2023-05-31T00:49:27;16.40;;;5.28;;
31652;SDS011;18261;53.648;9.910;2023-05-31T00:51:54;10.70;;;4.88;;
31652;SDS011;18261;53.648;9.910;2023-05-31T00:54:21;14.68;;;5.10;;
31652;SDS011;18261;53.648;9.910;2023-05-31T00:56:47;14.02;;;4.60;;
31652;SDS011;18261;53.648;9.910;2023-05-31T00:59:14;13.48;;;5.15;;
31652;SDS011;18261;53.648;9.910;2023-05-31T01:01:41;20.35;;;5.40;;
31652;SDS011;18261;53.648;9.910;2023-05-31T01:04:16;16.50;;;5.38;;
31652;SDS011;18261;53.648;9.910;2023-05-31T01:06:42;17.48;;;5.57;;
31652;SDS011;18261;53.648;9.910;2023-05-31T01:09:08;10.07;;;4.90;;
31652;SDS011;18261;53.648;9.910;2023-05-31T01:16:47;13.32;;;4.97;;
31652;SDS011;18261;53.648;9.910;2023-05-31T01:19:17;15.98;;;6.43;;
31652;SDS011;18261;53.648;9.910;2023-05-31T01:22:00;16.08;;;5.22;;
31652;SDS011;18261;53.648;9.910;2023-05-31T01:24:34;12.02;;;5.32;;
31652;SDS011;18261;53.648;9.910;2023-05-31T01:27:02;12.90;;;5.20;;
31652;SDS011;18261;53.648;9.910;2023-05-31T01:29:30;15.25;;;5.85;;
31652;SDS011;18261;53.648;9.910;2023-05-31T01:31:57;16.35;;;6.00;;
31652;SDS011;18261;53.648;9.910;2023-05-31T01:34:24;13.60;;;5.60;;
31652;SDS011;18261;53.648;9.910;2023-05-31T01:36:50;13.85;;;5.75;;
31652;SDS011;18261;53.648;9.910;2023-05-31T01:39:16;16.48;;;5.82;;
31652;SDS011;18261;53.648;9.910;2023-05-31T01:41:43;11.60;;;5.43;;
31652;SDS011;18261;53.648;9.910;2023-05-31T01:44:10;17.63;;;6.57;;
31652;SDS011;18261;53.648;9.910;2023-05-31T01:46:38;13.23;;;6.20;;
31652;SDS011;18261;53.648;9.910;2023-05-31T01:49:05;17.88;;;7.68;;
31652;SDS011;18261;53.648;9.910;2023-05-31T01:51:32;18.48;;;6.75;;
31652;SDS011;18261;53.648;9.910;2023-05-31T01:53:59;14.50;;;7.18;;
31652;SDS011;18261;53.648;9.910;2023-05-31T01:56:25;17.27;;;7.22;;
31652;SDS011;18261;53.648;9.910;2023-05-31T01:58:53;19.33;;;6.32;;
31652;SDS011;18261;53.648;9.910;2023-05-31T02:01:20;16.65;;;6.40;;
31652;SDS011;18261;53.648;9.910;2023-05-31T02:03:48;15.23;;;5.28;;
31652;SDS011;18261;53.648;9.910;2023-05-31T02:06:14;16.17;;;6.75;;
31652;SDS011;18261;53.648;9.910;2023-05-31T02:08:40;19.92;;;7.20;;
31652;SDS011;18261;53.648;9.910;2023-05-31T02:11:06;24.27;;;6.72;;
31652;SDS011;18261;53.648;9.910;2023-05-31T02:13:33;15.35;;;6.60;;
31652;SDS011;18261;53.648;9.910;2023-05-31T02:15:59;14.93;;;7.18;;
31652;SDS011;18261;53.648;9.910;2023-05-31T02:18:25;16.80;;;7.20;;
31652;SDS011;18261;53.648;9.910;2023-05-31T02:20:52;17.35;;;7.47;;
31652;SDS011;18261;53.648;9.910;2023-05-31T02:23:18;17.30;;;7.32;;
31652;SDS011;18261;53.648;9.910;2023-05-31T02:25:45;12.45;;;6.22;;
31652;SDS011;18261;53.648;9.910;2023-05-31T02:28:11;16.95;;;6.55;;
31652;SDS011;18261;53.648;9.910;2023-05-31T02:30:37;15.63;;;6.18;;
31652;SDS011;18261;53.648;9.910;2023-05-31T02:33:03;13.10;;;5.60;;
31652;SDS011;18261;53.648;9.910;2023-05-31T02:35:29;15.25;;;6.68;;
31652;SDS011;18261;53.648;9.910;2023-05-31T02:37:55;15.55;;;6.38;;
31652;SDS011;18261;53.648;9.910;2023-05-31T02:40:21;17.08;;;6.70;;
31652;SDS011;18261;53.648;9.910;2023-05-31T02:42:47;21.80;;;8.52;;
31652;SDS011;18261;53.648;9.910;2023-05-31T02:45:13;15.32;;;6.75;;
31652;SDS011;18261;53.648;9.910;2023-05-31T02:47:39;15.48;;;7.15;;
31652;SDS011;18261;53.648;9.910;2023-05-31T02:50:06;16.67;;;6.60;;
31652;SDS011;18261;53.648;9.910;2023-05-31T02:52:36;41.13;;;16.58;;
31652;SDS011;18261;53.648;9.910;2023-05-31T02:55:02;21.65;;;9.77;;
31652;SDS011;18261;53.648;9.910;2023-05-31T02:57:28;11.77;;;6.40;;
31652;SDS011;18261;53.648;9.910;2023-05-31T02:59:56;13.38;;;5.93;;
31652;SDS011;18261;53.648;9.910;2023-05-31T03:02:22;13.52;;;5.75;;
31652;SDS011;18261;53.648;9.910;2023-05-31T03:04:49;16.13;;;6.38;;
31652;SDS011;18261;53.648;9.910;2023-05-31T03:07:15;16.77;;;7.05;;
31652;SDS011;18261;53.648;9.910;2023-05-31T03:09:41;15.60;;;6.57;;
31652;SDS011;18261;53.648;9.910;2023-05-31T03:12:07;11.27;;;6.07;;
31652;SDS011;18261;53.648;9.910;2023-05-31T03:14:33;15.52;;;6.15;;
31652;SDS011;18261;53.648;9.910;2023-05-31T03:16:59;12.73;;;6.03;;
31652;SDS011;18261;53.648;9.910;2023-05-31T03:19:25;21.85;;;8.20;;
31652;SDS011;18261;53.648;9.910;2023-05-31T03:21:52;11.77;;;7.18;;
31652;SDS011;18261;53.648;9.910;2023-05-31T03:24:18;13.35;;;6.63;;
31652;SDS011;18261;53.648;9.910;2023-05-31T03:26:44;16.33;;;6.18;;
31652;SDS011;18261;53.648;9.910;2023-05-31T03:29:10;15.13;;;6.72;;
31652;SDS011;18261;53.648;9.910;2023-05-31T03:31:36;18.58;;;8.30;;
31652;SDS011;18261;53.648;9.910;2023-05-31T03:34:02;17.23;;;8.50;;
31652;SDS011;18261;53.648;9.910;2023-05-31T03:36:28;15.95;;;7.65;;
31652;SDS011;18261;53.648;9.910;2023-05-31T03:38:54;12.30;;;7.13;;
31652;SDS011;18261;53.648;9.910;2023-05-31T03:41:20;15.93;;;6.38;;
31652;SDS011;18261;53.648;9.910;2023-05-31T03:43:46;13.82;;;6.57;;
31652;SDS011;18261;53.648;9.910;2023-05-31T03:46:12;13.13;;;6.30;;
31652;SDS011;18261;53.648;9.910;2023-05-31T03:48:38;18.88;;;7.68;;
31652;SDS011;18261;53.648;9.910;2023-05-31T03:51:04;19.38;;;8.90;;
31652;SDS011;18261;53.648;9.910;2023-05-31T03:53:30;16.05;;;7.35;;
31652;SDS011;18261;53.648;9.910;2023-05-31T03:55:56;15.20;;;7.28;;
31652;SDS011;18261;53.648;9.910;2023-05-31T03:58:23;17.00;;;7.70;;
31652;SDS011;18261;53.648;9.910;2023-05-31T04:00:49;22.27;;;7.97;;
31652;SDS011;18261;53.648;9.910;2023-05-31T04:03:16;14.55;;;7.65;;
31652;SDS011;18261;53.648;9.910;2023-05-31T04:05:42;17.35;;;7.90;;
31652;SDS011;18261;53.648;9.910;2023-05-31T04:08:09;15.40;;;8.48;;
31652;SDS011;18261;53.648;9.910;2023-05-31T04:10:35;18.58;;;9.48;;
31652;SDS011;18261;53.648;9.910;2023-05-31T04:13:01;18.50;;;9.63;;
31652;SDS011;18261;53.648;9.910;2023-05-31T04:15:27;15.70;;;8.02;;
31652;SDS011;18261;53.648;9.910;2023-05-31T04:17:53;14.18;;;6.85;;
31652;SDS011;18261;53.648;9.910;2023-05-31T04:20:20;14.15;;;6.85;;
31652;SDS011;18261;53.648;9.910;2023-05-31T04:22:46;16.92;;;7.95;;
31652;SDS011;18261;53.648;9.910;2023-05-31T04:25:12;22.35;;;8.85;;
31652;SDS011;18261;53.648;9.910;2023-05-31T04:27:38;16.90;;;7.72;;
31652;SDS011;18261;53.648;9.910;2023-05-31T04:30:08;18.17;;;7.88;;
31652;SDS011;18261;53.648;9.910;2023-05-31T04:32:34;18.95;;;9.07;;
31652;SDS011;18261;53.648;9.910;2023-05-31T04:35:01;23.67;;;9.63;;
31652;SDS011;18261;53.648;9.910;2023-05-31T04:37:28;17.23;;;8.82;;
31652;SDS011;18261;53.648;9.910;2023-05-31T04:39:55;15.85;;;8.25;;
31652;SDS011;18261;53.648;9.910;2023-05-31T04:42:22;15.23;;;7.90;;
31652;SDS011;18261;53.648;9.910;2023-05-31T04:44:52;15.85;;;9.23;;
31652;SDS011;18261;53.648;9.910;2023-05-31T04:47:23;15.95;;;8.73;;
31652;SDS011;18261;53.648;9.910;2023-05-31T04:49:49;22.55;;;10.35;;
31652;SDS011;18261;53.648;9.910;2023-05-31T04:52:15;19.40;;;9.20;;
31652;SDS011;18261;53.648;9.910;2023-05-31T04:54:42;18.83;;;9.07;;
31652;SDS011;18261;53.648;9.910;2023-05-31T04:57:08;13.20;;;8.13;;
31652;SDS011;18261;53.648;9.910;2023-05-31T04:59:34;17.58;;;9.15;;
31652;SDS011;18261;53.648;9.910;2023-05-31T05:02:01;19.65;;;9.57;;
31652;SDS011;18261;53.648;9.910;2023-05-31T05:04:27;18.25;;;8.32;;
31652;SDS011;18261;53.648;9.910;2023-05-31T05:06:53;21.20;;;9.35;;
31652;SDS011;18261;53.648;9.910;2023-05-31T05:09:19;20.38;;;9.82;;
31652;SDS011;18261;53.648;9.910;2023-05-31T05:11:45;21.17;;;10.15;;
31652;SDS011;18261;53.648;9.910;2023-05-31T05:14:11;21.27;;;9.68;;
31652;SDS011;18261;53.648;9.910;2023-05-31T05:16:37;18.30;;;8.65;;
31652;SDS011;18261;53.648;9.910;2023-05-31T05:19:03;24.20;;;9.57;;
31652;SDS011;18261;53.648;9.910;2023-05-31T05:21:29;25.75;;;9.20;;
31652;SDS011;18261;53.648;9.910;2023-05-31T05:23:56;21.25;;;9.20;;
31652;SDS011;18261;53.648;9.910;2023-05-31T05:26:22;18.52;;;9.38;;
31652;SDS011;18261;53.648;9.910;2023-05-31T05:28:48;18.65;;;8.55;;
31652;SDS011;18261;53.648;9.910;2023-05-31T05:31:14;16.65;;;9.02;;
31652;SDS011;18261;53.648;9.910;2023-05-31T05:33:40;19.67;;;9.27;;
31652;SDS011;18261;53.648;9.910;2023-05-31T05:36:06;22.65;;;8.93;;
31652;SDS011;18261;53.648;9.910;2023-05-31T05:38:32;19.88;;;8.82;;
31652;SDS011;18261;53.648;9.910;2023-05-31T05:40:58;27.67;;;11.30;;
31652;SDS011;18261;53.648;9.910;2023-05-31T05:43:24;16.55;;;9.18;;
31652;SDS011;18261;53.648;9.910;2023-05-31T05:45:50;20.00;;;9.15;;
31652;SDS011;18261;53.648;9.910;2023-05-31T05:48:16;20.15;;;9.73;;
31652;SDS011;18261;53.648;9.910;2023-05-31T05:50:42;24.23;;;8.60;;
31652;SDS011;18261;53.648;9.910;2023-05-31T05:53:08;19.63;;;8.10;;
31652;SDS011;18261;53.648;9.910;2023-05-31T05:55:34;20.27;;;8.82;;
31652;SDS011;18261;53.648;9.910;2023-05-31T05:58:00;14.68;;;8.10;;
31652;SDS011;18261;53.648;9.910;2023-05-31T06:00:26;26.65;;;10.18;;
31652;SDS011;18261;53.648;9.910;2023-05-31T06:02:53;23.15;;;9.40;;
31652;SDS011;18261;53.648;9.910;2023-05-31T06:05:19;27.27;;;10.90;;
31652;SDS011;18261;53.648;9.910;2023-05-31T06:07:53;16.77;;;8.35;;
31652;SDS011;18261;53.648;9.910;2023-05-31T06:10:19;19.40;;;7.93;;
31652;SDS011;18261;53.648;9.910;2023-05-31T06:12:45;24.48;;;10.27;;
31652;SDS011;18261;53.648;9.910;2023-05-31T06:15:11;21.15;;;7.97;;
31652;SDS011;18261;53.648;9.910;2023-05-31T06:17:37;19.48;;;7.95;;
31652;SDS011;18261;53.648;9.910;2023-05-31T06:20:04;21.27;;;8.23;;
31652;SDS011;18261;53.648;9.910;2023-05-31T06:22:31;20.92;;;8.20;;
31652;SDS011;18261;53.648;9.910;2023-05-31T06:24:57;19.08;;;8.70;;
31652;SDS011;18261;53.648;9.910;2023-05-31T06:27:24;19.42;;;8.48;;
31652;SDS011;18261;53.648;9.910;2023-05-31T06:29:50;24.05;;;8.40;;
31652;SDS011;18261;53.648;9.910;2023-05-31T06:32:22;21.80;;;7.95;;
31652;SDS011;18261;53.648;9.910;2023-05-31T06:34:48;16.33;;;7.05;;
31652;SDS011;18261;53.648;9.910;2023-05-31T06:37:15;21.80;;;7.85;;
31652;SDS011;18261;53.648;9.910;2023-05-31T06:39:41;14.85;;;6.80;;
31652;SDS011;18261;53.648;9.910;2023-05-31T06:42:07;14.02;;;5.85;;
31652;SDS011;18261;53.648;9.910;2023-05-31T06:44:33;13.50;;;5.80;;
31652;SDS011;18261;53.648;9.910;2023-05-31T06:46:59;15.85;;;6.40;;
31652;SDS011;18261;53.648;9.910;2023-05-31T06:49:25;16.40;;;6.15;;
31652;SDS011;18261;53.648;9.910;2023-05-31T06:51:52;18.80;;;6.88;;
31652;SDS011;18261;53.648;9.910;2023-05-31T06:54:18;13.25;;;5.60;;
31652;SDS011;18261;53.648;9.910;2023-05-31T06:56:45;15.57;;;5.13;;
31652;SDS011;18261;53.648;9.910;2023-05-31T06:59:10;13.32;;;4.85;;
31652;SDS011;18261;53.648;9.910;2023-05-31T07:01:36;18.15;;;6.35;;
31652;SDS011;18261;53.648;9.910;2023-05-31T07:04:02;19.83;;;6.45;;
31652;SDS011;18261;53.648;9.910;2023-05-31T07:06:29;12.45;;;4.90;;
31652;SDS011;18261;53.648;9.910;2023-05-31T07:08:55;18.60;;;5.55;;
31652;SDS011;18261;53.648;9.910;2023-05-31T07:11:21;14.77;;;5.82;;
31652;SDS011;18261;53.648;9.910;2023-05-31T07:13:47;12.65;;;4.47;;
31652;SDS011;18261;53.648;9.910;2023-05-31T07:16:13;16.20;;;3.78;;
31652;SDS011;18261;53.648;9.910;2023-05-31T07:18:39;10.18;;;3.95;;
31652;SDS011;18261;53.648;9.910;2023-05-31T07:21:05;12.75;;;3.75;;
31652;SDS011;18261;53.648;9.910;2023-05-31T07:23:33;12.32;;;3.38;;
31652;SDS011;18261;53.648;9.910;2023-05-31T07:25:59;13.52;;;3.03;;
31652;SDS011;18261;53.648;9.910;2023-05-31T07:28:27;9.50;;;4.07;;
31652;SDS011;18261;53.648;9.910;2023-05-31T07:30:53;15.85;;;5.00;;
31652;SDS011;18261;53.648;9.910;2023-05-31T07:33:19;13.88;;;4.10;;
31652;SDS011;18261;53.648;9.910;2023-05-31T07:35:45;12.18;;;3.47;;
31652;SDS011;18261;53.648;9.910;2023-05-31T07:38:11;11.55;;;4.18;;
31652;SDS011;18261;53.648;9.910;2023-05-31T07:40:37;8.95;;;3.83;;
31652;SDS011;18261;53.648;9.910;2023-05-31T07:43:03;10.40;;;4.30;;
31652;SDS011;18261;53.648;9.910;2023-05-31T07:45:29;13.05;;;4.53;;
31652;SDS011;18261;53.648;9.910;2023-05-31T07:47:56;14.82;;;4.72;;
31652;SDS011;18261;53.648;9.910;2023-05-31T07:50:22;17.23;;;4.90;;
31652;SDS011;18261;53.648;9.910;2023-05-31T07:52:48;14.93;;;4.35;;
31652;SDS011;18261;53.648;9.910;2023-05-31T07:55:15;14.20;;;4.47;;
31652;SDS011;18261;53.648;9.910;2023-05-31T07:57:44;16.75;;;4.20;;
31652;SDS011;18261;53.648;9.910;2023-05-31T08:00:10;15.43;;;3.53;;
31652;SDS011;18261;53.648;9.910;2023-05-31T08:02:38;16.27;;;3.60;;
31652;SDS011;18261;53.648;9.910;2023-05-31T08:05:04;16.50;;;3.78;;
31652;SDS011;18261;53.648;9.910;2023-05-31T08:07:30;15.40;;;3.28;;
31652;SDS011;18261;53.648;9.910;2023-05-31T08:09:56;16.85;;;3.65;;
31652;SDS011;18261;53.648;9.910;2023-05-31T08:12:23;13.20;;;3.38;;
31652;SDS011;18261;53.648;9.910;2023-05-31T08:14:49;14.23;;;3.75;;
31652;SDS011;18261;53.648;9.910;2023-05-31T08:17:15;15.55;;;4.22;;
31652;SDS011;18261;53.648;9.910;2023-05-31T08:19:41;19.77;;;7.47;;
31652;SDS011;18261;53.648;9.910;2023-05-31T08:22:07;19.67;;;4.65;;
31652;SDS011;18261;53.648;9.910;2023-05-31T08:24:33;10.13;;;3.33;;
31652;SDS011;18261;53.648;9.910;2023-05-31T08:26:59;9.65;;;3.15;;
31652;SDS011;18261;53.648;9.910;2023-05-31T08:29:26;16.73;;;3.35;;
31652;SDS011;18261;53.648;9.910;2023-05-31T08:31:53;11.75;;;3.10;;
31652;SDS011;18261;53.648;9.910;2023-05-31T08:34:20;22.13;;;3.80;;
31652;SDS011;18261;53.648;9.910;2023-05-31T08:36:46;13.02;;;3.35;;
31652;SDS011;18261;53.648;9.910;2023-05-31T08:39:12;16.83;;;3.10;;
31652;SDS011;18261;53.648;9.910;2023-05-31T08:41:51;16.88;;;3.70;;
31652;SDS011;18261;53.648;9.910;2023-05-31T08:44:19;9.65;;;2.90;;
31652;SDS011;18261;53.648;9.910;2023-05-31T08:46:46;18.08;;;3.75;;
31652;SDS011;18261;53.648;9.910;2023-05-31T08:49:13;17.80;;;3.47;;
31652;SDS011;18261;53.648;9.910;2023-05-31T08:51:41;14.00;;;3.63;;
31652;SDS011;18261;53.648;9.910;2023-05-31T08:54:09;15.00;;;3.33;;
31652;SDS011;18261;53.648;9.910;2023-05-31T08:56:37;13.77;;;3.40;;
31652;SDS011;18261;53.648;9.910;2023-05-31T08:59:07;15.80;;;3.33;;
31652;SDS011;18261;53.648;9.910;2023-05-31T09:01:35;21.77;;;4.03;;
31652;SDS011;18261;53.648;9.910;2023-05-31T09:04:02;10.20;;;3.20;;
31652;SDS011;18261;53.648;9.910;2023-05-31T09:06:29;15.18;;;4.90;;
31652;SDS011;18261;53.648;9.910;2023-05-31T09:08:55;21.60;;;3.42;;
31652;SDS011;18261;53.648;9.910;2023-05-31T09:11:22;17.08;;;3.53;;
31652;SDS011;18261;53.648;9.910;2023-05-31T09:13:48;10.73;;;2.97;;
31652;SDS011;18261;53.648;9.910;2023-05-31T09:16:14;15.38;;;3.33;;
31652;SDS011;18261;53.648;9.910;2023-05-31T09:18:40;16.50;;;3.42;;
31652;SDS011;18261;53.648;9.910;2023-05-31T09:21:11;14.48;;;3.45;;
31652;SDS011;18261;53.648;9.910;2023-05-31T09:23:37;13.82;;;4.00;;
31652;SDS011;18261;53.648;9.910;2023-05-31T09:26:07;11.27;;;4.28;;
31652;SDS011;18261;53.648;9.910;2023-05-31T09:28:33;11.98;;;3.65;;
31652;SDS011;18261;53.648;9.910;2023-05-31T09:31:05;13.45;;;3.47;;
31652;SDS011;18261;53.648;9.910;2023-05-31T09:33:39;12.18;;;3.17;;
31652;SDS011;18261;53.648;9.910;2023-05-31T09:36:05;15.15;;;3.08;;
31652;SDS011;18261;53.648;9.910;2023-05-31T09:38:32;18.02;;;3.10;;
31652;SDS011;18261;53.648;9.910;2023-05-31T09:41:14;9.60;;;2.92;;
31652;SDS011;18261;53.648;9.910;2023-05-31T09:43:44;16.50;;;2.97;;
31652;SDS011;18261;53.648;9.910;2023-05-31T09:46:14;13.73;;;3.22;;
31652;SDS011;18261;53.648;9.910;2023-05-31T09:48:40;8.18;;;2.72;;
31652;SDS011;18261;53.648;9.910;2023-05-31T09:51:07;16.40;;;4.45;;
31652;SDS011;18261;53.648;9.910;2023-05-31T09:53:38;9.52;;;3.28;;
31652;SDS011;18261;53.648;9.910;2023-05-31T09:56:07;9.77;;;3.17;;
31652;SDS011;18261;53.648;9.910;2023-05-31T09:58:34;13.93;;;3.15;;
31652;SDS011;18261;53.648;9.910;2023-05-31T10:01:00;9.05;;;2.75;;
31652;SDS011;18261;53.648;9.910;2023-05-31T10:03:27;11.43;;;3.92;;
31652;SDS011;18261;53.648;9.910;2023-05-31T10:05:53;9.55;;;3.47;;
31652;SDS011;18261;53.648;9.910;2023-05-31T10:08:20;12.10;;;3.15;;
31652;SDS011;18261;53.648;9.910;2023-05-31T10:10:47;22.38;;;6.10;;
31652;SDS011;18261;53.648;9.910;2023-05-31T10:13:13;10.63;;;3.38;;
31652;SDS011;18261;53.648;9.910;2023-05-31T10:15:41;11.50;;;2.90;;
31652;SDS011;18261;53.648;9.910;2023-05-31T10:18:13;10.05;;;3.08;;
31652;SDS011;18261;53.648;9.910;2023-05-31T10:20:43;12.93;;;2.90;;
31652;SDS011;18261;53.648;9.910;2023-05-31T10:23:20;9.70;;;2.70;;
31652;SDS011;18261;53.648;9.910;2023-05-31T10:28:17;9.48;;;2.33;;
31652;SDS011;18261;53.648;9.910;2023-05-31T10:30:43;12.98;;;2.70;;
31652;SDS011;18261;53.648;9.910;2023-05-31T10:33:12;10.07;;;2.80;;
31652;SDS011;18261;53.648;9.910;2023-05-31T10:35:40;10.18;;;2.45;;
31652;SDS011;18261;53.648;9.910;2023-05-31T10:38:06;10.07;;;3.13;;
31652;SDS011;18261;53.648;9.910;2023-05-31T10:40:49;11.00;;;3.30;;
31652;SDS011;18261;53.648;9.910;2023-05-31T10:43:36;8.43;;;2.72;;
31652;SDS011;18261;53.648;9.910;2023-05-31T10:46:08;9.25;;;2.63;;
31652;SDS011;18261;53.648;9.910;2023-05-31T10:48:39;14.35;;;5.10;;
31652;SDS011;18261;53.648;9.910;2023-05-31T10:51:06;12.10;;;3.63;;
31652;SDS011;18261;53.648;9.910;2023-05-31T10:53:35;10.10;;;2.80;;
31652;SDS011;18261;53.648;9.910;2023-05-31T10:56:04;9.35;;;3.28;;
31652;SDS011;18261;53.648;9.910;2023-05-31T10:58:34;15.98;;;3.97;;
31652;SDS011;18261;53.648;9.910;2023-05-31T11:01:06;10.18;;;3.10;;
31652;SDS011;18261;53.648;9.910;2023-05-31T11:03:34;7.25;;;2.10;;
31652;SDS011;18261;53.648;9.910;2023-05-31T11:06:01;13.80;;;3.50;;
31652;SDS011;18261;53.648;9.910;2023-05-31T11:08:28;15.88;;;3.30;;
31652;SDS011;18261;53.648;9.910;2023-05-31T11:13:55;10.38;;;2.83;;
31652;SDS011;18261;53.648;9.910;2023-05-31T11:16:22;14.82;;;4.95;;
31652;SDS011;18261;53.648;9.910;2023-05-31T11:18:48;11.18;;;3.63;;
31652;SDS011;18261;53.648;9.910;2023-05-31T11:24:24;14.30;;;3.03;;
31652;SDS011;18261;53.648;9.910;2023-05-31T11:26:53;14.32;;;3.90;;
31652;SDS011;18261;53.648;9.910;2023-05-31T11:29:19;13.45;;;4.82;;
31652;SDS011;18261;53.648;9.910;2023-05-31T11:36:49;15.02;;;4.15;;
31652;SDS011;18261;53.648;9.910;2023-05-31T11:39:18;13.43;;;3.60;;
31652;SDS011;18261;53.648;9.910;2023-05-31T11:41:45;10.35;;;3.17;;
31652;SDS011;18261;53.648;9.910;2023-05-31T11:44:11;17.45;;;3.38;;
31652;SDS011;18261;53.648;9.910;2023-05-31T11:46:39;13.65;;;3.50;;
31652;SDS011;18261;53.648;9.910;2023-05-31T11:49:08;7.90;;;2.90;;
31652;SDS011;18261;53.648;9.910;2023-05-31T11:51:34;9.43;;;2.67;;
31652;SDS011;18261;53.648;9.910;2023-05-31T11:54:01;10.77;;;3.40;;
31652;SDS011;18261;53.648;9.910;2023-05-31T11:56:31;12.38;;;2.83;;
31652;SDS011;18261;53.648;9.910;2023-05-31T11:59:03;17.42;;;4.22;;
31652;SDS011;18261;53.648;9.910;2023-05-31T12:01:36;13.90;;;3.65;;
31652;SDS011;18261;53.648;9.910;2023-05-31T12:04:02;18.50;;;3.40;;
31652;SDS011;18261;53.648;9.910;2023-05-31T12:06:28;12.85;;;2.85;;
31652;SDS011;18261;53.648;9.910;2023-05-31T12:08:54;14.23;;;2.85;;
31652;SDS011;18261;53.648;9.910;2023-05-31T12:11:20;8.07;;;2.70;;
31652;SDS011;18261;53.648;9.910;2023-05-31T12:13:47;11.88;;;3.13;;
31652;SDS011;18261;53.648;9.910;2023-05-31T12:16:13;9.38;;;3.00;;
31652;SDS011;18261;53.648;9.910;2023-05-31T12:18:39;10.60;;;3.22;;
31652;SDS011;18261;53.648;9.910;2023-05-31T12:21:08;16.20;;;2.80;;
31652;SDS011;18261;53.648;9.910;2023-05-31T12:23:55;12.02;;;2.22;;
31652;SDS011;18261;53.648;9.910;2023-05-31T12:26:23;9.93;;;2.20;;
31652;SDS011;18261;53.648;9.910;2023-05-31T12:28:52;12.07;;;2.25;;
31652;SDS011;18261;53.648;9.910;2023-05-31T12:31:24;10.63;;;2.38;;
31652;SDS011;18261;53.648;9.910;2023-05-31T12:33:57;11.70;;;2.65;;
31652;SDS011;18261;53.648;9.910;2023-05-31T12:36:27;8.88;;;2.53;;
31652;SDS011;18261;53.648;9.910;2023-05-31T12:38:53;9.95;;;2.10;;
31652;SDS011;18261;53.648;9.910;2023-05-31T12:41:20;7.57;;;1.80;;
31652;SDS011;18261;53.648;9.910;2023-05-31T12:43:47;5.60;;;2.25;;
31652;SDS011;18261;53.648;9.910;2023-05-31T12:46:16;12.05;;;2.17;;
31652;SDS011;18261;53.648;9.910;2023-05-31T12:48:49;11.43;;;2.88;;
31652;SDS011;18261;53.648;9.910;2023-05-31T12:51:22;9.15;;;2.67;;
31652;SDS011;18261;53.648;9.910;2023-05-31T12:53:48;6.00;;;2.00;;
31652;SDS011;18261;53.648;9.910;2023-05-31T12:56:15;5.50;;;1.80;;
31652;SDS011;18261;53.648;9.910;2023-05-31T12:58:42;11.15;;;1.83;;
31652;SDS011;18261;53.648;9.910;2023-05-31T13:01:08;10.65;;;2.30;;
31652;SDS011;18261;53.648;9.910;2023-05-31T13:03:34;15.75;;;1.80;;
31652;SDS011;18261;53.648;9.910;2023-05-31T13:06:01;6.13;;;2.10;;
31652;SDS011;18261;53.648;9.910;2023-05-31T13:08:29;10.68;;;2.25;;
31652;SDS011;18261;53.648;9.910;2023-05-31T13:10:55;12.02;;;4.00;;
31652;SDS011;18261;53.648;9.910;2023-05-31T13:13:21;8.70;;;2.10;;
31652;SDS011;18261;53.648;9.910;2023-05-31T13:15:47;7.65;;;2.13;;
31652;SDS011;18261;53.648;9.910;2023-05-31T13:18:13;12.27;;;2.13;;
31652;SDS011;18261;53.648;9.910;2023-05-31T13:20:39;6.50;;;2.30;;
31652;SDS011;18261;53.648;9.910;2023-05-31T13:23:05;9.95;;;2.08;;
31652;SDS011;18261;53.648;9.910;2023-05-31T13:25:33;9.85;;;2.30;;
31652;SDS011;18261;53.648;9.910;2023-05-31T13:27:59;11.35;;;2.45;;
31652;SDS011;18261;53.648;9.910;2023-05-31T13:30:25;6.47;;;1.73;;
31652;SDS011;18261;53.648;9.910;2023-05-31T13:32:52;13.25;;;2.25;;
31652;SDS011;18261;53.648;9.910;2023-05-31T13:35:18;11.02;;;2.30;;
31652;SDS011;18261;53.648;9.910;2023-05-31T13:37:44;12.65;;;2.08;;
31652;SDS011;18261;53.648;9.910;2023-05-31T13:40:10;6.57;;;2.22;;
31652;SDS011;18261;53.648;9.910;2023-05-31T13:42:36;10.35;;;2.20;;
31652;SDS011;18261;53.648;9.910;2023-05-31T13:45:03;11.60;;;2.38;;
31652;SDS011;18261;53.648;9.910;2023-05-31T13:47:29;13.13;;;2.25;;
31652;SDS011;18261;53.648;9.910;2023-05-31T13:49:55;9.43;;;2.15;;
31652;SDS011;18261;53.648;9.910;2023-05-31T13:52:21;9.00;;;2.20;;
31652;SDS011;18261;53.648;9.910;2023-05-31T13:54:47;14.60;;;2.88;;
31652;SDS011;18261;53.648;9.910;2023-05-31T13:57:13;11.90;;;2.10;;
31652;SDS011;18261;53.648;9.910;2023-05-31T13:59:39;10.10;;;2.47;;
31652;SDS011;18261;53.648;9.910;2023-05-31T14:02:06;8.27;;;2.10;;
31652;SDS011;18261;53.648;9.910;2023-05-31T14:04:32;7.70;;;2.03;;
31652;SDS011;18261;53.648;9.910;2023-05-31T14:06:58;8.32;;;2.15;;
31652;SDS011;18261;53.648;9.910;2023-05-31T14:09:24;11.82;;;2.25;;
31652;SDS011;18261;53.648;9.910;2023-05-31T14:11:51;14.35;;;2.67;;
31652;SDS011;18261;53.648;9.910;2023-05-31T14:14:17;9.43;;;2.15;;
31652;SDS011;18261;53.648;9.910;2023-05-31T14:16:43;9.70;;;2.35;;
31652;SDS011;18261;53.648;9.910;2023-05-31T14:19:09;9.52;;;2.70;;
31652;SDS011;18261;53.648;9.910;2023-05-31T14:21:35;12.18;;;3.22;;
31652;SDS011;18261;53.648;9.910;2023-05-31T14:24:02;10.38;;;3.03;;
31652;SDS011;18261;53.648;9.910;2023-05-31T14:26:28;8.85;;;2.40;;
31652;SDS011;18261;53.648;9.910;2023-05-31T14:28:55;10.52;;;3.13;;
31652;SDS011;18261;53.648;9.910;2023-05-31T14:31:21;14.30;;;3.22;;
31652;SDS011;18261;53.648;9.910;2023-05-31T14:33:47;12.23;;;3.83;;
31652;SDS011;18261;53.648;9.910;2023-05-31T14:36:13;8.43;;;3.10;;
31652;SDS011;18261;53.648;9.910;2023-05-31T14:38:39;9.13;;;2.90;;
31652;SDS011;18261;53.648;9.910;2023-05-31T14:41:05;10.35;;;2.88;;
31652;SDS011;18261;53.648;9.910;2023-05-31T14:43:31;12.15;;;2.85;;
31652;SDS011;18261;53.648;9.910;2023-05-31T14:45:57;8.57;;;2.92;;
31652;SDS011;18261;53.648;9.910;2023-05-31T14:48:23;13.68;;;2.90;;
31652;SDS011;18261;53.648;9.910;2023-05-31T14:50:49;9.95;;;3.33;;
31652;SDS011;18261;53.648;9.910;2023-05-31T14:53:15;12.10;;;2.90;;